sensor_id;sensor_type;location;lat;lon;timestamp;temperature;humidity
23291;DHT22;11814;44.686;10.842;2023-05-21T00:01:40;16.80;99.90
23291;DHT22;11814;44.686;10.842;2023-05-21T00:04:06;16.70;99.90
23291;DHT22;11814;44.686;10.842;2023-05-21T00:06:33;16.70;99.90
23291;DHT22;11814;44.686;10.842;2023-05-21T00:09:03;16.70;99.90
23291;DHT22;11814;44.686;10.842;2023-05-21T00:11:29;16.70;99.90
23291;DHT22;11814;44.686;10.842;2023-05-21T00:13:55;16.70;99.90
23291;DHT22;11814;44.686;10.842;2023-05-21T00:16:21;16.70;99.90
23291;DHT22;11814;44.686;10.842;2023-05-21T00:18:48;16.70;99.90
23291;DHT22;11814;44.686;10.842;2023-05-21T00:21:15;16.70;99.90
23291;DHT22;11814;44.686;10.842;2023-05-21T00:23:50;16.70;99.90
23291;DHT22;11814;44.686;10.842;2023-05-21T00:26:21;16.60;99.90
23291;DHT22;11814;44.686;10.842;2023-05-21T00:28:48;16.60;99.90
23291;DHT22;11814;44.686;10.842;2023-05-21T00:31:14;16.60;99.90
23291;DHT22;11814;44.686;10.842;2023-05-21T00:33:42;16.60;99.90
23291;DHT22;11814;44.686;10.842;2023-05-21T00:36:08;16.60;99.90
23291;DHT22;11814;44.686;10.842;2023-05-21T00:38:33;16.60;99.90
23291;DHT22;11814;44.686;10.842;2023-05-21T00:41:02;16.60;99.90
23291;DHT22;11814;44.686;10.842;2023-05-21T00:43:28;16.60;99.90
23291;DHT22;11814;44.686;10.842;2023-05-21T00:45:54;16.60;99.90
23291;DHT22;11814;44.686;10.842;2023-05-21T00:48:21;16.60;99.90
23291;DHT22;11814;44.686;10.842;2023-05-21T00:50:48;16.60;99.90
23291;DHT22;11814;44.686;10.842;2023-05-21T00:53:16;16.60;99.90
23291;DHT22;11814;44.686;10.842;2023-05-21T00:55:44;16.60;99.90
23291;DHT22;11814;44.686;10.842;2023-05-21T00:58:10;16.50;99.90
23291;DHT22;11814;44.686;10.842;2023-05-21T01:00:36;16.50;99.90
23291;DHT22;11814;44.686;10.842;2023-05-21T01:03:03;16.50;99.90
23291;DHT22;11814;44.686;10.842;2023-05-21T01:05:29;16.50;99.90
23291;DHT22;11814;44.686;10.842;2023-05-21T01:07:56;16.50;99.90
23291;DHT22;11814;44.686;10.842;2023-05-21T01:10:23;16.50;99.90
23291;DHT22;11814;44.686;10.842;2023-05-21T01:12:49;16.50;99.90
23291;DHT22;11814;44.686;10.842;2023-05-21T01:15:15;16.50;99.90
23291;DHT22;11814;44.686;10.842;2023-05-21T01:17:41;16.50;99.90
23291;DHT22;11814;44.686;10.842;2023-05-21T01:20:10;16.50;99.90
23291;DHT22;11814;44.686;10.842;2023-05-21T01:22:48;16.50;99.90
23291;DHT22;11814;44.686;10.842;2023-05-21T01:25:14;16.50;99.90
23291;DHT22;11814;44.686;10.842;2023-05-21T01:27:39;16.60;99.90
23291;DHT22;11814;44.686;10.842;2023-05-21T01:30:06;16.60;99.90
23291;DHT22;11814;44.686;10.842;2023-05-21T01:32:50;16.60;99.90
23291;DHT22;11814;44.686;10.842;2023-05-21T01:35:26;16.50;99.90
23291;DHT22;11814;44.686;10.842;2023-05-21T01:37:56;16.50;99.90
23291;DHT22;11814;44.686;10.842;2023-05-21T01:40:52;16.50;99.90
23291;DHT22;11814;44.686;10.842;2023-05-21T01:43:19;16.50;99.90
23291;DHT22;11814;44.686;10.842;2023-05-21T01:45:46;16.50;99.90
23291;DHT22;11814;44.686;10.842;2023-05-21T01:48:14;16.50;99.90
23291;DHT22;11814;44.686;10.842;2023-05-21T01:50:43;16.50;99.90
23291;DHT22;11814;44.686;10.842;2023-05-21T01:53:09;16.50;99.90
23291;DHT22;11814;44.686;10.842;2023-05-21T01:55:35;16.50;99.90
23291;DHT22;11814;44.686;10.842;2023-05-21T01:58:04;16.50;99.90
23291;DHT22;11814;44.686;10.842;2023-05-21T02:00:29;16.50;99.90
23291;DHT22;11814;44.686;10.842;2023-05-21T02:02:56;16.50;99.90
23291;DHT22;11814;44.686;10.842;2023-05-21T02:05:23;16.50;99.90
23291;DHT22;11814;44.686;10.842;2023-05-21T02:07:49;16.50;99.90
23291;DHT22;11814;44.686;10.842;2023-05-21T02:10:17;16.50;99.90
23291;DHT22;11814;44.686;10.842;2023-05-21T02:12:42;16.50;99.90
23291;DHT22;11814;44.686;10.842;2023-05-21T02:15:08;16.50;99.90
23291;DHT22;11814;44.686;10.842;2023-05-21T02:17:35;16.50;99.90
23291;DHT22;11814;44.686;10.842;2023-05-21T02:20:03;16.50;99.90
23291;DHT22;11814;44.686;10.842;2023-05-21T02:22:37;16.50;99.90
23291;DHT22;11814;44.686;10.842;2023-05-21T02:25:03;16.50;99.90
23291;DHT22;11814;44.686;10.842;2023-05-21T02:27:29;16.50;99.90
23291;DHT22;11814;44.686;10.842;2023-05-21T02:29:57;16.50;99.90
23291;DHT22;11814;44.686;10.842;2023-05-21T02:32:22;16.50;99.90
23291;DHT22;11814;44.686;10.842;2023-05-21T02:34:49;16.50;99.90
23291;DHT22;11814;44.686;10.842;2023-05-21T02:37:15;16.40;99.90
23291;DHT22;11814;44.686;10.842;2023-05-21T02:39:41;16.40;99.90
23291;DHT22;11814;44.686;10.842;2023-05-21T02:42:07;16.40;99.90
23291;DHT22;11814;44.686;10.842;2023-05-21T02:44:33;16.40;99.90
23291;DHT22;11814;44.686;10.842;2023-05-21T02:46:59;16.40;99.90
23291;DHT22;11814;44.686;10.842;2023-05-21T02:49:24;16.40;99.90
23291;DHT22;11814;44.686;10.842;2023-05-21T02:51:50;16.40;99.90
23291;DHT22;11814;44.686;10.842;2023-05-21T02:54:16;16.40;99.90
23291;DHT22;11814;44.686;10.842;2023-05-21T02:56:42;16.40;99.90
23291;DHT22;11814;44.686;10.842;2023-05-21T02:59:07;16.40;99.90
23291;DHT22;11814;44.686;10.842;2023-05-21T03:01:33;16.40;99.90
23291;DHT22;11814;44.686;10.842;2023-05-21T03:03:59;16.30;99.90
23291;DHT22;11814;44.686;10.842;2023-05-21T03:06:24;16.30;99.90
23291;DHT22;11814;44.686;10.842;2023-05-21T03:08:50;16.30;99.90
23291;DHT22;11814;44.686;10.842;2023-05-21T03:11:18;16.30;99.90
23291;DHT22;11814;44.686;10.842;2023-05-21T03:13:43;16.30;99.90
23291;DHT22;11814;44.686;10.842;2023-05-21T03:16:09;16.30;99.90
23291;DHT22;11814;44.686;10.842;2023-05-21T03:18:35;16.20;99.90
23291;DHT22;11814;44.686;10.842;2023-05-21T03:21:01;16.20;99.90
23291;DHT22;11814;44.686;10.842;2023-05-21T03:23:26;16.20;99.90
23291;DHT22;11814;44.686;10.842;2023-05-21T03:25:52;16.20;99.90
23291;DHT22;11814;44.686;10.842;2023-05-21T03:28:18;16.20;99.90
23291;DHT22;11814;44.686;10.842;2023-05-21T03:30:44;16.20;99.90
23291;DHT22;11814;44.686;10.842;2023-05-21T03:33:14;16.20;99.90
23291;DHT22;11814;44.686;10.842;2023-05-21T03:35:40;16.20;99.90
23291;DHT22;11814;44.686;10.842;2023-05-21T03:38:06;16.20;99.90
23291;DHT22;11814;44.686;10.842;2023-05-21T03:40:32;16.20;99.90
23291;DHT22;11814;44.686;10.842;2023-05-21T03:42:58;16.20;99.90
23291;DHT22;11814;44.686;10.842;2023-05-21T03:45:23;16.20;99.90
23291;DHT22;11814;44.686;10.842;2023-05-21T03:47:49;16.20;99.90
23291;DHT22;11814;44.686;10.842;2023-05-21T03:50:15;16.20;99.90
23291;DHT22;11814;44.686;10.842;2023-05-21T03:52:41;16.20;99.90
23291;DHT22;11814;44.686;10.842;2023-05-21T03:55:07;16.20;99.90
23291;DHT22;11814;44.686;10.842;2023-05-21T03:57:33;16.20;99.90
23291;DHT22;11814;44.686;10.842;2023-05-21T03:59:59;16.20;99.90
23291;DHT22;11814;44.686;10.842;2023-05-21T04:02:25;16.20;99.90
23291;DHT22;11814;44.686;10.842;2023-05-21T04:04:51;16.20;99.90
23291;DHT22;11814;44.686;10.842;2023-05-21T04:07:20;16.20;99.90
23291;DHT22;11814;44.686;10.842;2023-05-21T04:09:47;16.20;99.90
23291;DHT22;11814;44.686;10.842;2023-05-21T04:12:13;16.20;99.90
23291;DHT22;11814;44.686;10.842;2023-05-21T04:14:38;16.20;99.90
23291;DHT22;11814;44.686;10.842;2023-05-21T04:17:04;16.20;99.90
23291;DHT22;11814;44.686;10.842;2023-05-21T04:19:33;16.30;99.90
23291;DHT22;11814;44.686;10.842;2023-05-21T04:21:59;16.30;99.90
23291;DHT22;11814;44.686;10.842;2023-05-21T04:24:24;16.30;99.90
23291;DHT22;11814;44.686;10.842;2023-05-21T04:26:50;16.30;99.90
23291;DHT22;11814;44.686;10.842;2023-05-21T04:29:16;16.30;99.90
23291;DHT22;11814;44.686;10.842;2023-05-21T04:31:47;16.30;99.90
23291;DHT22;11814;44.686;10.842;2023-05-21T04:34:12;16.40;99.90
23291;DHT22;11814;44.686;10.842;2023-05-21T04:36:38;16.30;99.90
23291;DHT22;11814;44.686;10.842;2023-05-21T04:39:04;16.30;99.90
23291;DHT22;11814;44.686;10.842;2023-05-21T04:41:31;16.30;99.90
23291;DHT22;11814;44.686;10.842;2023-05-21T04:43:57;16.30;99.90
23291;DHT22;11814;44.686;10.842;2023-05-21T04:46:23;16.40;99.90
23291;DHT22;11814;44.686;10.842;2023-05-21T04:48:52;16.30;99.90
23291;DHT22;11814;44.686;10.842;2023-05-21T04:51:20;16.40;99.90
23291;DHT22;11814;44.686;10.842;2023-05-21T04:53:47;16.30;99.90
23291;DHT22;11814;44.686;10.842;2023-05-21T04:56:15;16.40;99.90
23291;DHT22;11814;44.686;10.842;2023-05-21T04:58:43;16.40;99.90
23291;DHT22;11814;44.686;10.842;2023-05-21T05:01:09;16.40;99.90
23291;DHT22;11814;44.686;10.842;2023-05-21T05:03:34;16.40;99.90
23291;DHT22;11814;44.686;10.842;2023-05-21T05:06:00;16.40;99.90
23291;DHT22;11814;44.686;10.842;2023-05-21T05:08:28;16.40;99.90
23291;DHT22;11814;44.686;10.842;2023-05-21T05:10:54;16.40;99.90
23291;DHT22;11814;44.686;10.842;2023-05-21T05:13:20;16.40;99.90
23291;DHT22;11814;44.686;10.842;2023-05-21T05:15:46;16.40;99.90
23291;DHT22;11814;44.686;10.842;2023-05-21T05:18:12;16.50;99.90
23291;DHT22;11814;44.686;10.842;2023-05-21T05:20:38;16.50;99.90
23291;DHT22;11814;44.686;10.842;2023-05-21T05:23:03;16.50;99.90
23291;DHT22;11814;44.686;10.842;2023-05-21T05:25:29;16.50;99.90
23291;DHT22;11814;44.686;10.842;2023-05-21T05:27:55;16.60;99.90
23291;DHT22;11814;44.686;10.842;2023-05-21T05:30:21;16.60;99.90
23291;DHT22;11814;44.686;10.842;2023-05-21T05:32:46;16.60;99.90
23291;DHT22;11814;44.686;10.842;2023-05-21T05:35:12;16.60;99.90
23291;DHT22;11814;44.686;10.842;2023-05-21T05:37:38;16.60;99.90
23291;DHT22;11814;44.686;10.842;2023-05-21T05:40:04;16.70;99.90
23291;DHT22;11814;44.686;10.842;2023-05-21T05:42:30;16.70;99.90
23291;DHT22;11814;44.686;10.842;2023-05-21T05:44:56;16.70;99.90
23291;DHT22;11814;44.686;10.842;2023-05-21T05:47:21;16.70;99.90
23291;DHT22;11814;44.686;10.842;2023-05-21T05:49:47;16.70;99.90
23291;DHT22;11814;44.686;10.842;2023-05-21T05:52:13;16.70;99.90
23291;DHT22;11814;44.686;10.842;2023-05-21T05:54:39;16.80;99.90
23291;DHT22;11814;44.686;10.842;2023-05-21T05:57:05;16.80;99.90
23291;DHT22;11814;44.686;10.842;2023-05-21T05:59:30;16.80;99.90
23291;DHT22;11814;44.686;10.842;2023-05-21T06:01:58;16.80;99.90
23291;DHT22;11814;44.686;10.842;2023-05-21T06:04:24;16.80;99.90
23291;DHT22;11814;44.686;10.842;2023-05-21T06:06:54;16.90;99.90
23291;DHT22;11814;44.686;10.842;2023-05-21T06:09:22;16.90;99.90
23291;DHT22;11814;44.686;10.842;2023-05-21T06:11:48;16.90;99.90
23291;DHT22;11814;44.686;10.842;2023-05-21T06:14:14;17.00;99.90
23291;DHT22;11814;44.686;10.842;2023-05-21T06:16:39;17.00;99.90
23291;DHT22;11814;44.686;10.842;2023-05-21T06:19:05;17.10;99.90
23291;DHT22;11814;44.686;10.842;2023-05-21T06:21:31;17.10;99.90
23291;DHT22;11814;44.686;10.842;2023-05-21T06:23:57;17.20;99.90
23291;DHT22;11814;44.686;10.842;2023-05-21T06:26:23;17.20;99.90
23291;DHT22;11814;44.686;10.842;2023-05-21T06:28:48;17.30;99.90
23291;DHT22;11814;44.686;10.842;2023-05-21T06:31:14;17.40;99.90
23291;DHT22;11814;44.686;10.842;2023-05-21T06:33:40;17.50;99.90
23291;DHT22;11814;44.686;10.842;2023-05-21T06:36:06;17.60;99.90
23291;DHT22;11814;44.686;10.842;2023-05-21T06:38:32;17.70;99.90
23291;DHT22;11814;44.686;10.842;2023-05-21T06:40:58;17.70;99.90
23291;DHT22;11814;44.686;10.842;2023-05-21T06:43:24;17.80;99.90
23291;DHT22;11814;44.686;10.842;2023-05-21T06:45:50;18.00;99.90
23291;DHT22;11814;44.686;10.842;2023-05-21T06:48:16;18.20;99.90
23291;DHT22;11814;44.686;10.842;2023-05-21T06:50:42;18.40;99.90
23291;DHT22;11814;44.686;10.842;2023-05-21T06:53:08;18.60;99.90
23291;DHT22;11814;44.686;10.842;2023-05-21T06:55:34;18.70;99.90
23291;DHT22;11814;44.686;10.842;2023-05-21T06:58:00;18.80;99.90
23291;DHT22;11814;44.686;10.842;2023-05-21T07:00:26;18.90;99.90
23291;DHT22;11814;44.686;10.842;2023-05-21T07:02:52;18.90;99.90
23291;DHT22;11814;44.686;10.842;2023-05-21T07:05:18;19.00;99.90
23291;DHT22;11814;44.686;10.842;2023-05-21T07:07:44;19.00;99.90
23291;DHT22;11814;44.686;10.842;2023-05-21T07:10:10;19.10;99.90
23291;DHT22;11814;44.686;10.842;2023-05-21T07:12:36;19.00;99.90
23291;DHT22;11814;44.686;10.842;2023-05-21T07:15:01;19.00;99.90
23291;DHT22;11814;44.686;10.842;2023-05-21T07:17:27;19.10;99.90
23291;DHT22;11814;44.686;10.842;2023-05-21T07:19:53;19.20;99.90
23291;DHT22;11814;44.686;10.842;2023-05-21T07:22:18;19.20;99.90
23291;DHT22;11814;44.686;10.842;2023-05-21T07:24:44;19.00;99.90
23291;DHT22;11814;44.686;10.842;2023-05-21T07:27:10;19.00;99.90
23291;DHT22;11814;44.686;10.842;2023-05-21T07:29:35;18.90;99.90
23291;DHT22;11814;44.686;10.842;2023-05-21T07:32:02;18.80;99.90
23291;DHT22;11814;44.686;10.842;2023-05-21T07:34:28;18.80;99.90
23291;DHT22;11814;44.686;10.842;2023-05-21T07:36:53;18.90;99.90
23291;DHT22;11814;44.686;10.842;2023-05-21T07:39:19;19.00;99.90
23291;DHT22;11814;44.686;10.842;2023-05-21T07:41:45;19.20;99.90
23291;DHT22;11814;44.686;10.842;2023-05-21T07:44:11;19.40;99.90
23291;DHT22;11814;44.686;10.842;2023-05-21T07:46:36;19.50;99.90
23291;DHT22;11814;44.686;10.842;2023-05-21T07:49:02;19.50;99.90
23291;DHT22;11814;44.686;10.842;2023-05-21T07:51:28;19.60;99.90
23291;DHT22;11814;44.686;10.842;2023-05-21T07:53:53;19.70;99.90
23291;DHT22;11814;44.686;10.842;2023-05-21T07:56:19;19.80;99.90
23291;DHT22;11814;44.686;10.842;2023-05-21T07:58:45;19.90;99.90
23291;DHT22;11814;44.686;10.842;2023-05-21T08:01:11;20.00;99.90
23291;DHT22;11814;44.686;10.842;2023-05-21T08:03:37;20.10;99.90
23291;DHT22;11814;44.686;10.842;2023-05-21T08:06:03;20.10;99.90
23291;DHT22;11814;44.686;10.842;2023-05-21T08:08:29;20.20;99.90
23291;DHT22;11814;44.686;10.842;2023-05-21T08:10:55;20.20;99.90
23291;DHT22;11814;44.686;10.842;2023-05-21T08:13:21;20.20;99.90
23291;DHT22;11814;44.686;10.842;2023-05-21T08:15:47;20.20;99.90
23291;DHT22;11814;44.686;10.842;2023-05-21T08:18:13;20.20;99.90
23291;DHT22;11814;44.686;10.842;2023-05-21T08:20:39;20.30;99.90
23291;DHT22;11814;44.686;10.842;2023-05-21T08:23:05;20.30;99.90
23291;DHT22;11814;44.686;10.842;2023-05-21T08:25:31;20.40;99.90
23291;DHT22;11814;44.686;10.842;2023-05-21T08:27:57;20.50;99.90
23291;DHT22;11814;44.686;10.842;2023-05-21T08:30:23;20.60;99.90
23291;DHT22;11814;44.686;10.842;2023-05-21T08:32:49;20.60;99.90
23291;DHT22;11814;44.686;10.842;2023-05-21T08:35:14;20.60;99.90
23291;DHT22;11814;44.686;10.842;2023-05-21T08:37:41;20.70;99.90
23291;DHT22;11814;44.686;10.842;2023-05-21T08:40:07;20.70;99.90
23291;DHT22;11814;44.686;10.842;2023-05-21T08:42:47;20.80;99.90
23291;DHT22;11814;44.686;10.842;2023-05-21T08:45:16;20.80;99.90
23291;DHT22;11814;44.686;10.842;2023-05-21T08:47:44;20.90;99.90
23291;DHT22;11814;44.686;10.842;2023-05-21T08:50:13;20.90;99.90
23291;DHT22;11814;44.686;10.842;2023-05-21T08:52:39;20.90;99.90
23291;DHT22;11814;44.686;10.842;2023-05-21T08:55:06;21.00;99.90
23291;DHT22;11814;44.686;10.842;2023-05-21T08:57:32;21.10;99.90
23291;DHT22;11814;44.686;10.842;2023-05-21T08:59:58;21.10;99.90
23291;DHT22;11814;44.686;10.842;2023-05-21T09:02:24;21.20;99.90
23291;DHT22;11814;44.686;10.842;2023-05-21T09:04:52;21.20;99.90
23291;DHT22;11814;44.686;10.842;2023-05-21T09:07:24;21.30;99.90
23291;DHT22;11814;44.686;10.842;2023-05-21T09:09:56;21.40;99.90
23291;DHT22;11814;44.686;10.842;2023-05-21T09:12:26;21.40;99.90
23291;DHT22;11814;44.686;10.842;2023-05-21T09:14:52;21.40;99.90
23291;DHT22;11814;44.686;10.842;2023-05-21T09:17:18;21.50;99.90
23291;DHT22;11814;44.686;10.842;2023-05-21T09:22:47;21.60;99.90
23291;DHT22;11814;44.686;10.842;2023-05-21T09:25:15;21.70;99.90
23291;DHT22;11814;44.686;10.842;2023-05-21T09:27:42;21.80;99.90
23291;DHT22;11814;44.686;10.842;2023-05-21T09:30:12;21.90;99.90
23291;DHT22;11814;44.686;10.842;2023-05-21T09:32:39;22.00;99.90
23291;DHT22;11814;44.686;10.842;2023-05-21T09:35:13;22.00;99.90
23291;DHT22;11814;44.686;10.842;2023-05-21T09:37:39;22.10;99.90
23291;DHT22;11814;44.686;10.842;2023-05-21T09:40:34;22.20;99.90
23291;DHT22;11814;44.686;10.842;2023-05-21T09:43:00;22.20;99.90
23291;DHT22;11814;44.686;10.842;2023-05-21T09:45:27;22.20;99.90
23291;DHT22;11814;44.686;10.842;2023-05-21T09:47:54;22.20;99.90
23291;DHT22;11814;44.686;10.842;2023-05-21T09:52:48;22.30;99.90
23291;DHT22;11814;44.686;10.842;2023-05-21T09:55:27;22.40;99.90
23291;DHT22;11814;44.686;10.842;2023-05-21T09:57:53;22.40;99.90
23291;DHT22;11814;44.686;10.842;2023-05-21T10:02:49;22.50;99.90
23291;DHT22;11814;44.686;10.842;2023-05-21T10:05:16;22.60;99.90
23291;DHT22;11814;44.686;10.842;2023-05-21T10:07:49;22.70;99.90
23291;DHT22;11814;44.686;10.842;2023-05-21T10:10:18;22.70;99.90
23291;DHT22;11814;44.686;10.842;2023-05-21T10:12:45;22.70;99.90
23291;DHT22;11814;44.686;10.842;2023-05-21T10:15:13;22.80;99.90
23291;DHT22;11814;44.686;10.842;2023-05-21T10:17:41;22.80;99.90
23291;DHT22;11814;44.686;10.842;2023-05-21T10:20:10;22.90;99.90
23291;DHT22;11814;44.686;10.842;2023-05-21T10:22:36;23.00;99.90
23291;DHT22;11814;44.686;10.842;2023-05-21T10:25:02;23.10;99.90
23291;DHT22;11814;44.686;10.842;2023-05-21T10:27:30;23.10;99.90
23291;DHT22;11814;44.686;10.842;2023-05-21T10:29:56;23.20;99.90
23291;DHT22;11814;44.686;10.842;2023-05-21T10:32:25;23.10;99.90
23291;DHT22;11814;44.686;10.842;2023-05-21T10:34:53;23.30;99.90
23291;DHT22;11814;44.686;10.842;2023-05-21T10:37:22;23.30;99.90
23291;DHT22;11814;44.686;10.842;2023-05-21T10:39:49;23.20;99.90
23291;DHT22;11814;44.686;10.842;2023-05-21T10:48:04;23.10;99.90
23291;DHT22;11814;44.686;10.842;2023-05-21T10:50:45;23.20;99.90
23291;DHT22;11814;44.686;10.842;2023-05-21T10:59:06;23.40;99.90
23291;DHT22;11814;44.686;10.842;2023-05-21T11:01:36;23.40;99.90
23291;DHT22;11814;44.686;10.842;2023-05-21T11:04:03;23.50;99.90
23291;DHT22;11814;44.686;10.842;2023-05-21T11:06:30;23.60;99.90
23291;DHT22;11814;44.686;10.842;2023-05-21T11:08:56;23.70;99.90
23291;DHT22;11814;44.686;10.842;2023-05-21T11:11:39;23.80;99.90
23291;DHT22;11814;44.686;10.842;2023-05-21T11:16:58;23.80;99.90
23291;DHT22;11814;44.686;10.842;2023-05-21T11:19:46;23.70;99.90
23291;DHT22;11814;44.686;10.842;2023-05-21T11:22:26;23.70;99.90
23291;DHT22;11814;44.686;10.842;2023-05-21T11:24:53;23.70;99.90
23291;DHT22;11814;44.686;10.842;2023-05-21T11:27:34;23.70;99.90
23291;DHT22;11814;44.686;10.842;2023-05-21T11:30:06;23.60;99.90
23291;DHT22;11814;44.686;10.842;2023-05-21T11:32:37;23.60;99.90
23291;DHT22;11814;44.686;10.842;2023-05-21T11:35:03;23.60;99.90
23291;DHT22;11814;44.686;10.842;2023-05-21T11:37:30;23.60;99.90
23291;DHT22;11814;44.686;10.842;2023-05-21T11:40:00;23.70;99.90
23291;DHT22;11814;44.686;10.842;2023-05-21T11:42:40;23.60;99.90
23291;DHT22;11814;44.686;10.842;2023-05-21T11:45:08;23.60;99.90
23291;DHT22;11814;44.686;10.842;2023-05-21T11:47:33;23.70;99.90
23291;DHT22;11814;44.686;10.842;2023-05-21T11:50:01;23.80;99.90
23291;DHT22;11814;44.686;10.842;2023-05-21T11:52:29;23.80;99.90
23291;DHT22;11814;44.686;10.842;2023-05-21T11:54:55;23.80;99.90
23291;DHT22;11814;44.686;10.842;2023-05-21T11:57:25;23.90;99.90
23291;DHT22;11814;44.686;10.842;2023-05-21T11:59:51;24.00;99.90
23291;DHT22;11814;44.686;10.842;2023-05-21T12:02:20;24.10;99.90
23291;DHT22;11814;44.686;10.842;2023-05-21T12:04:48;24.10;99.90
23291;DHT22;11814;44.686;10.842;2023-05-21T12:07:18;24.20;99.80
23291;DHT22;11814;44.686;10.842;2023-05-21T12:09:50;24.30;99.70
23291;DHT22;11814;44.686;10.842;2023-05-21T12:12:17;24.30;99.60
23291;DHT22;11814;44.686;10.842;2023-05-21T12:14:45;24.40;99.20
23291;DHT22;11814;44.686;10.842;2023-05-21T12:17:11;24.40;99.00
23291;DHT22;11814;44.686;10.842;2023-05-21T12:19:38;24.40;99.00
23291;DHT22;11814;44.686;10.842;2023-05-21T12:22:05;24.50;98.60
23291;DHT22;11814;44.686;10.842;2023-05-21T12:24:31;24.60;98.00
23291;DHT22;11814;44.686;10.842;2023-05-21T12:26:59;24.60;97.50
23291;DHT22;11814;44.686;10.842;2023-05-21T12:29:30;24.50;97.20
23291;DHT22;11814;44.686;10.842;2023-05-21T12:32:00;24.40;97.50
23291;DHT22;11814;44.686;10.842;2023-05-21T12:34:42;24.40;98.10
23291;DHT22;11814;44.686;10.842;2023-05-21T12:39:46;24.40;99.00
23291;DHT22;11814;44.686;10.842;2023-05-21T12:42:12;24.40;98.70
23291;DHT22;11814;44.686;10.842;2023-05-21T12:44:42;24.50;98.50
23291;DHT22;11814;44.686;10.842;2023-05-21T12:47:09;24.60;98.40
23291;DHT22;11814;44.686;10.842;2023-05-21T12:49:38;24.60;98.20
23291;DHT22;11814;44.686;10.842;2023-05-21T12:52:16;24.70;98.30
23291;DHT22;11814;44.686;10.842;2023-05-21T12:54:47;24.80;98.30
23291;DHT22;11814;44.686;10.842;2023-05-21T12:57:22;24.90;97.90
23291;DHT22;11814;44.686;10.842;2023-05-21T12:59:55;24.80;97.60
23291;DHT22;11814;44.686;10.842;2023-05-21T13:05:03;25.00;97.70
23291;DHT22;11814;44.686;10.842;2023-05-21T13:07:30;25.00;97.60
23291;DHT22;11814;44.686;10.842;2023-05-21T13:09:57;25.10;97.80
23291;DHT22;11814;44.686;10.842;2023-05-21T13:12:24;25.20;97.90
23291;DHT22;11814;44.686;10.842;2023-05-21T13:14:55;25.20;97.70
23291;DHT22;11814;44.686;10.842;2023-05-21T13:17:21;25.10;97.30
23291;DHT22;11814;44.686;10.842;2023-05-21T13:22:43;24.90;96.80
23291;DHT22;11814;44.686;10.842;2023-05-21T13:25:12;24.80;96.70
23291;DHT22;11814;44.686;10.842;2023-05-21T13:27:40;24.70;96.60
23291;DHT22;11814;44.686;10.842;2023-05-21T13:30:07;24.70;96.60
23291;DHT22;11814;44.686;10.842;2023-05-21T13:32:34;24.80;96.70
23291;DHT22;11814;44.686;10.842;2023-05-21T13:35:00;24.90;96.80
23291;DHT22;11814;44.686;10.842;2023-05-21T13:37:26;25.00;97.30
23291;DHT22;11814;44.686;10.842;2023-05-21T13:39:52;25.10;97.40
23291;DHT22;11814;44.686;10.842;2023-05-21T13:42:18;25.00;97.00
23291;DHT22;11814;44.686;10.842;2023-05-21T13:44:45;25.00;96.60
23291;DHT22;11814;44.686;10.842;2023-05-21T13:47:11;25.10;96.20
23291;DHT22;11814;44.686;10.842;2023-05-21T13:49:37;25.10;94.50
23291;DHT22;11814;44.686;10.842;2023-05-21T13:52:04;25.20;94.00
23291;DHT22;11814;44.686;10.842;2023-05-21T13:54:30;25.20;93.20
23291;DHT22;11814;44.686;10.842;2023-05-21T13:56:56;25.40;91.10
23291;DHT22;11814;44.686;10.842;2023-05-21T13:59:22;25.50;89.30
23291;DHT22;11814;44.686;10.842;2023-05-21T14:01:48;25.60;85.40
23291;DHT22;11814;44.686;10.842;2023-05-21T14:04:16;25.70;82.90
23291;DHT22;11814;44.686;10.842;2023-05-21T14:06:42;25.70;81.00
23291;DHT22;11814;44.686;10.842;2023-05-21T14:09:08;25.80;79.70
23291;DHT22;11814;44.686;10.842;2023-05-21T14:11:34;25.80;78.60
23291;DHT22;11814;44.686;10.842;2023-05-21T14:14:00;25.90;77.80
23291;DHT22;11814;44.686;10.842;2023-05-21T14:16:26;25.90;77.60
23291;DHT22;11814;44.686;10.842;2023-05-21T14:18:58;26.00;76.90
23291;DHT22;11814;44.686;10.842;2023-05-21T14:21:24;26.10;75.80
23291;DHT22;11814;44.686;10.842;2023-05-21T14:23:51;26.10;75.30
23291;DHT22;11814;44.686;10.842;2023-05-21T14:26:17;26.20;75.20
23291;DHT22;11814;44.686;10.842;2023-05-21T14:28:43;26.10;75.10
23291;DHT22;11814;44.686;10.842;2023-05-21T14:31:10;26.20;74.60
23291;DHT22;11814;44.686;10.842;2023-05-21T14:33:36;26.10;74.10
23291;DHT22;11814;44.686;10.842;2023-05-21T14:36:03;26.20;74.40
23291;DHT22;11814;44.686;10.842;2023-05-21T14:38:28;26.30;74.30
23291;DHT22;11814;44.686;10.842;2023-05-21T14:40:54;26.30;73.90
23291;DHT22;11814;44.686;10.842;2023-05-21T14:43:20;26.30;73.30
23291;DHT22;11814;44.686;10.842;2023-05-21T14:45:47;26.30;73.40
23291;DHT22;11814;44.686;10.842;2023-05-21T14:48:15;26.30;73.10
23291;DHT22;11814;44.686;10.842;2023-05-21T14:50:42;26.30;72.80
23291;DHT22;11814;44.686;10.842;2023-05-21T14:53:10;26.30;73.00
23291;DHT22;11814;44.686;10.842;2023-05-21T14:55:36;26.30;73.20
23291;DHT22;11814;44.686;10.842;2023-05-21T14:58:03;26.40;73.40
23291;DHT22;11814;44.686;10.842;2023-05-21T15:00:33;26.40;74.00
23291;DHT22;11814;44.686;10.842;2023-05-21T15:02:59;26.40;73.60
23291;DHT22;11814;44.686;10.842;2023-05-21T15:05:25;26.40;72.90
23291;DHT22;11814;44.686;10.842;2023-05-21T15:07:55;26.30;72.30
23291;DHT22;11814;44.686;10.842;2023-05-21T15:10:24;26.30;71.30
23291;DHT22;11814;44.686;10.842;2023-05-21T15:12:51;26.30;70.70
23291;DHT22;11814;44.686;10.842;2023-05-21T15:15:17;26.30;71.10
23291;DHT22;11814;44.686;10.842;2023-05-21T15:17:46;26.30;70.80
23291;DHT22;11814;44.686;10.842;2023-05-21T15:20:12;26.30;71.00
23291;DHT22;11814;44.686;10.842;2023-05-21T15:22:38;26.30;71.20
23291;DHT22;11814;44.686;10.842;2023-05-21T15:25:04;26.30;71.10
23291;DHT22;11814;44.686;10.842;2023-05-21T15:27:30;26.30;71.00
23291;DHT22;11814;44.686;10.842;2023-05-21T15:29:56;26.30;71.20
23291;DHT22;11814;44.686;10.842;2023-05-21T15:32:22;26.30;71.00
23291;DHT22;11814;44.686;10.842;2023-05-21T15:34:48;26.30;70.90
23291;DHT22;11814;44.686;10.842;2023-05-21T15:37:15;26.30;70.60
23291;DHT22;11814;44.686;10.842;2023-05-21T15:39:45;26.20;70.50
23291;DHT22;11814;44.686;10.842;2023-05-21T15:42:11;26.20;70.90
23291;DHT22;11814;44.686;10.842;2023-05-21T15:44:37;26.20;70.70
23291;DHT22;11814;44.686;10.842;2023-05-21T15:47:04;26.20;70.30